createdAt,value
2023-03-07T00:16:42.265Z,9.00
2023-03-07T00:21:11.695Z,8.30
2023-03-07T00:25:41.036Z,9.20
2023-03-07T00:30:11.723Z,8.10
2023-03-07T01:00:51.168Z,13.60
2023-03-07T01:05:20.493Z,12.80
2023-03-07T01:09:31.402Z,12.70
2023-03-07T01:13:53.182Z,16.00
2023-03-07T01:44:33.518Z,14.00
2023-03-07T01:49:02.747Z,13.40
2023-03-07T01:53:34.954Z,13.70
2023-03-07T02:01:50.291Z,15.10
2023-03-07T02:06:28.274Z,14.80
2023-03-07T02:28:17.813Z,17.00
2023-03-07T02:32:35.139Z,15.80
2023-03-07T02:36:57.219Z,13.80
2023-03-07T02:41:27.052Z,15.00
2023-03-07T02:45:38.310Z,15.20
2023-03-07T02:49:58.411Z,16.50
2023-03-07T03:12:29.725Z,18.20
2023-03-07T03:16:58.924Z,16.00
2023-03-07T03:21:29.104Z,17.00
2023-03-07T03:44:09.308Z,14.90
2023-03-07T03:48:38.542Z,13.60
2023-03-07T03:53:07.912Z,15.60
2023-03-07T03:57:26.870Z,15.00
2023-03-07T04:01:56.237Z,14.80
2023-03-07T04:06:26.668Z,15.00
2023-03-07T04:10:44.843Z,14.70
2023-03-07T04:41:08.150Z,22.60
2023-03-07T04:45:36.965Z,19.80
2023-03-07T04:50:06.088Z,21.90
2023-03-07T04:54:35.402Z,19.90
2023-03-07T04:59:05.550Z,19.10
2023-03-07T05:03:28.245Z,19.00
2023-03-07T05:25:01.447Z,21.50
2023-03-07T05:29:30.830Z,18.50
2023-03-07T05:34:00.128Z,21.10
2023-03-07T05:38:29.777Z,20.40
2023-03-07T06:25:55.461Z,24.90
2023-03-07T06:30:14.115Z,27.10
2023-03-07T06:34:43.054Z,24.70
2023-03-07T06:38:59.567Z,24.40
2023-03-07T06:43:21.468Z,28.40
2023-03-07T06:47:27.701Z,28.50
2023-03-07T06:51:48.493Z,25.60
2023-03-07T06:55:11.889Z,25.10
2023-03-07T06:59:19.935Z,22.60
2023-03-07T07:03:10.312Z,21.60
2023-03-07T07:29:57.421Z,18.40
2023-03-07T07:34:26.826Z,16.80
2023-03-07T07:38:48.956Z,15.60
2023-03-07T07:43:18.419Z,15.80
2023-03-07T07:47:50.808Z,13.70
2023-03-07T07:52:13.762Z,12.30
2023-03-07T07:56:43.505Z,12.80
2023-03-07T08:22:33.190Z,12.20
2023-03-07T08:26:51.210Z,10.90
2023-03-07T08:31:20.708Z,11.30
2023-03-07T08:35:50.254Z,11.60
2023-03-07T08:40:13.697Z,12.10
2023-03-07T09:11:51.122Z,13.90
2023-03-07T09:16:13.062Z,12.80
2023-03-07T09:20:27.940Z,13.10
2023-03-07T09:37:21.489Z,14.00
2023-03-07T09:41:37.573Z,12.20
2023-03-07T09:45:53.433Z,12.70
2023-03-07T09:50:19.277Z,11.60
2023-03-07T09:58:56.296Z,11.40
2023-03-07T10:03:22.832Z,12.30
2023-03-07T10:07:09.655Z,11.80
2023-03-07T10:10:02.263Z,11.50
2023-03-07T10:13:23.955Z,10.90
2023-03-07T10:16:51.334Z,10.70
2023-03-07T10:20:41.287Z,11.30
2023-03-07T10:23:52.005Z,11.10
2023-03-07T10:27:07.513Z,10.80
2023-03-07T10:30:22.509Z,10.80
2023-03-07T10:33:14.767Z,10.20
2023-03-07T10:37:14.481Z,9.70
2023-03-07T10:41:24.785Z,10.30
2023-03-07T10:44:52.696Z,8.70
2023-03-07T10:48:41.557Z,8.10
2023-03-07T10:52:54.416Z,8.00
2023-03-07T10:56:55.401Z,6.90
2023-03-07T11:01:21.678Z,8.00
2023-03-07T11:05:36.382Z,7.00
2023-03-07T11:12:40.498Z,6.00
2023-03-07T11:15:27.747Z,7.60
2023-03-07T11:18:37.765Z,6.60
2023-03-07T11:21:53.197Z,7.20
2023-03-07T11:25:39.584Z,6.40
2023-03-07T11:29:28.731Z,6.30
2023-03-07T11:33:03.759Z,5.70
2023-03-07T11:36:26.322Z,6.20
2023-03-07T11:39:55.040Z,5.90
2023-03-07T11:44:05.161Z,6.90
2023-03-07T11:47:52.844Z,5.50
2023-03-07T12:43:33.275Z,2.80
2023-03-07T12:47:49.153Z,3.10
2023-03-07T13:27:06.608Z,2.30
2023-03-07T13:31:28.517Z,1.60
2023-03-07T13:35:50.440Z,1.80
2023-03-07T13:40:41.325Z,1.90
2023-03-07T13:45:10.528Z,1.60
2023-03-07T13:49:29.433Z,1.80
2023-03-07T13:53:52.422Z,1.20
2023-03-07T13:58:09.345Z,1.30
2023-03-07T14:02:32.397Z,1.20
2023-03-07T14:06:58.388Z,1.10
2023-03-07T14:10:58.453Z,1.40
2023-03-07T14:31:57.178Z,0.80
2023-03-07T14:36:41.853Z,0.70
2023-03-07T14:41:33.554Z,0.80
2023-03-07T14:45:50.909Z,0.80
2023-03-07T14:50:17.361Z,0.90
2023-03-07T14:54:39.456Z,1.00
2023-03-07T14:59:02.633Z,1.20
2023-03-07T15:03:38.555Z,1.10
2023-03-07T15:08:00.661Z,1.30
2023-03-07T15:12:19.385Z,1.60
2023-03-07T15:38:41.268Z,0.70
2023-03-07T15:43:10.673Z,1.40
2023-03-07T15:47:28.430Z,1.50
2023-03-07T15:51:58.373Z,1.30
2023-03-07T15:56:17.825Z,1.50
2023-03-07T16:00:28.316Z,1.30
2023-03-07T16:25:39.773Z,1.40
2023-03-07T16:30:09.129Z,1.60
2023-03-07T16:34:38.582Z,1.30
2023-03-07T16:39:09.327Z,1.80
2023-03-07T16:43:31.226Z,2.10
2023-03-07T16:47:45.666Z,1.20
2023-03-07T16:52:18.517Z,1.70
2023-03-07T17:10:27.502Z,2.60
2023-03-07T17:14:53.725Z,1.50
2023-03-07T17:19:22.921Z,2.30
2023-03-07T17:41:02.691Z,2.20
2023-03-07T17:45:24.645Z,2.40
2023-03-07T17:49:46.839Z,2.10
2023-03-07T18:20:13.498Z,2.10
2023-03-07T18:24:42.562Z,2.10
2023-03-07T18:29:04.325Z,2.70
2023-03-07T18:33:26.430Z,2.40
2023-03-07T18:37:54.132Z,3.00
2023-03-07T19:03:57.919Z,3.30
2023-03-07T19:31:21.882Z,2.50
2023-03-07T19:35:51.056Z,3.10
2023-03-07T19:40:13.054Z,2.20
2023-03-07T19:44:42.468Z,2.20
2023-03-07T19:49:12.583Z,2.70
2023-03-07T19:53:42.068Z,2.40
2023-03-07T19:58:11.852Z,2.20
2023-03-07T20:15:32.523Z,2.10
2023-03-07T20:20:02.965Z,2.20
2023-03-07T20:24:32.510Z,2.20
2023-03-07T20:28:54.225Z,2.20
2023-03-07T20:33:23.632Z,2.20
2023-03-07T20:37:53.869Z,2.50
2023-03-07T20:50:41.618Z,2.50
2023-03-07T20:55:13.453Z,2.70
2023-03-07T20:59:28.806Z,2.20
2023-03-07T21:25:47.143Z,3.10
2023-03-07T21:30:16.136Z,3.40
2023-03-07T21:57:09.853Z,2.40
2023-03-07T22:01:29.881Z,3.00
2023-03-07T22:10:38.526Z,3.20
2023-03-07T22:19:08.130Z,2.30
2023-03-07T22:23:37.527Z,1.80
2023-03-07T22:44:55.342Z,2.60
2023-03-07T22:49:12.577Z,1.70
2023-03-07T22:53:42.603Z,1.40
2023-03-07T23:15:20.265Z,2.00
2023-03-07T23:19:50.733Z,2.50
2023-03-07T23:24:05.186Z,1.90
2023-03-07T23:28:26.749Z,2.00
2023-03-07T23:32:46.622Z,2.00
2023-03-07T23:51:55.294Z,1.40
2023-03-07T23:56:24.828Z,2.40
